Time;durP1;ratioP1;P1;durP2;ratioP2;P2;SDS_P1;SDS_P2;PMS_P1;PMS_P2;Temp;Humidity;BMP_temperature;BMP_pressure;BME280_temperature;BME280_humidity;BME280_pressure;Samples;Min_cycle;Max_cycle;Signal;HPM_P1;HPM_P2
2023/12/31 00:02:30;;;;;;;7.93;6.13;;;6.20;99.90;;;;;;5033086;28;20498;-82
2023/12/31 00:05:02;;;;;;;6.47;5.90;;;6.20;99.90;;;;;;5031510;28;20475;-82
2023/12/31 00:07:34;;;;;;;8.70;6.17;;;6.10;99.90;;;;;;5030386;28;20437;-82
2023/12/31 00:10:12;;;;;;;7.23;6.50;;;6.30;99.90;;;;;;5031070;28;20452;-80
2023/12/31 00:12:43;;;;;;;8.70;6.87;;;6.00;99.90;;;;;;5030167;28;20440;-82
2023/12/31 00:15:12;;;;;;;7.90;7.10;;;6.00;99.90;;;;;;5029386;28;20448;-83
2023/12/31 00:17:50;;;;;;;7.83;7.10;;;5.90;99.90;;;;;;5028429;28;20451;-81
2023/12/31 00:20:22;;;;;;;9.30;7.73;;;6.10;99.90;;;;;;5025860;28;20792;-81
2023/12/31 00:22:56;;;;;;;7.93;7.13;;;5.90;99.90;;;;;;5025282;28;20841;-81
2023/12/31 00:25:28;;;;;;;9.93;9.03;;;5.80;99.90;;;;;;5024441;28;20843;-81
2023/12/31 00:28:00;;;;;;;9.60;8.60;;;5.70;99.90;;;;;;5025651;28;20491;-82
2023/12/31 00:30:35;;;;;;;9.10;8.27;;;5.70;99.90;;;;;;5023250;28;20637;-80
2023/12/31 00:33:10;;;;;;;10.17;9.07;;;5.60;99.90;;;;;;5005160;28;20453;-81
2023/12/31 00:35:39;;;;;;;11.70;10.63;;;5.60;99.90;;;;;;5007292;28;20417;-81
2023/12/31 00:38:10;;;;;;;11.13;9.97;;;5.50;99.90;;;;;;5004882;28;20850;-82
2023/12/31 00:40:40;;;;;;;10.77;9.63;;;5.50;99.90;;;;;;5007393;28;20484;-81
2023/12/31 00:43:08;;;;;;;12.73;10.80;;;5.60;99.90;;;;;;5011872;28;20444;-82
2023/12/31 00:45:38;;;;;;;15.00;11.97;;;5.50;99.90;;;;;;5013807;28;20911;-81
2023/12/31 00:48:13;;;;;;;12.67;11.40;;;5.50;99.90;;;;;;5011922;28;20426;-81
2023/12/31 00:50:46;;;;;;;12.43;11.13;;;5.50;99.90;;;;;;5009172;28;20475;-81
2023/12/31 00:53:16;;;;;;;11.70;10.67;;;5.70;99.90;;;;;;5003993;28;20462;-82
2023/12/31 00:55:47;;;;;;;11.63;9.87;;;5.10;99.90;;;;;;5003126;28;20457;-81
2023/12/31 00:58:18;;;;;;;11.60;10.50;;;5.40;99.90;;;;;;5001909;28;21006;-82
2023/12/31 01:00:48;;;;;;;14.27;10.97;;;5.40;99.90;;;;;;4999954;28;20523;-82
2023/12/31 01:03:18;;;;;;;12.73;11.43;;;5.40;99.90;;;;;;5002879;28;20434;-81
2023/12/31 01:06:02;;;;;;;13.30;12.07;;;5.30;99.90;;;;;;5004631;28;20478;-81
2023/12/31 01:08:31;;;;;;;11.57;10.37;;;5.30;99.90;;;;;;5004800;28;20468;-82
2023/12/31 01:11:02;;;;;;;11.63;10.50;;;5.50;99.90;;;;;;5001740;28;20595;-83
2023/12/31 01:13:32;;;;;;;12.73;11.43;;;5.20;99.90;;;;;;5002270;28;20488;-82
2023/12/31 01:16:02;;;;;;;12.73;11.53;;;5.20;99.90;;;;;;5004360;28;20910;-81
2023/12/31 01:18:43;;;;;;;12.33;10.67;;;5.20;99.90;;;;;;5006446;28;20592;-81
2023/12/31 01:21:13;;;;;;;15.67;11.03;;;5.40;99.90;;;;;;5004811;28;20540;-81
2023/12/31 01:23:44;;;;;;;11.77;10.67;;;5.10;99.90;;;;;;5003890;28;21029;-80
2023/12/31 01:26:26;;;;;;;13.50;12.10;;;5.30;99.90;;;;;;5002726;28;20481;-81
2023/12/31 01:29:01;;;;;;;11.27;10.17;;;5.00;99.90;;;;;;5001673;28;20933;-81
2023/12/31 01:31:36;;;;;;;13.53;11.57;;;5.10;99.90;;;;;;5001591;28;20495;-81
2023/12/31 01:34:07;;;;;;;11.30;10.20;;;5.10;99.90;;;;;;5000947;28;20456;-81
2023/12/31 01:36:36;;;;;;;10.93;10.03;;;5.10;99.90;;;;;;5001630;28;20456;-81
2023/12/31 01:39:07;;;;;;;11.73;10.47;;;5.00;99.90;;;;;;5002132;28;20521;-81
2023/12/31 01:41:38;;;;;;;11.03;9.80;;;5.10;99.90;;;;;;5000689;28;20880;-81
2023/12/31 01:44:09;;;;;;;11.20;10.00;;;4.80;99.90;;;;;;5000345;28;20511;-81
2023/12/31 01:46:37;;;;;;;12.13;9.97;;;5.00;99.90;;;;;;5000038;28;20472;-80
2023/12/31 01:49:08;;;;;;;11.80;10.63;;;5.20;99.90;;;;;;5000591;28;20449;-81
2023/12/31 01:51:39;;;;;;;11.13;10.03;;;5.00;99.90;;;;;;4998667;28;20533;-80
2023/12/31 01:54:16;;;;;;;11.10;10.00;;;4.90;99.90;;;;;;4997689;28;20539;-80
2023/12/31 01:56:53;;;;;;;12.17;10.40;;;4.90;99.90;;;;;;4998775;28;20887;-80
2023/12/31 01:59:24;;;;;;;12.40;11.10;;;4.80;99.90;;;;;;4997994;28;20456;-80
2023/12/31 02:01:53;;;;;;;11.77;10.33;;;4.80;99.90;;;;;;4997884;28;20473;-80
2023/12/31 02:04:35;;;;;;;12.00;10.80;;;4.80;99.90;;;;;;4998830;28;20463;-80
2023/12/31 02:07:11;;;;;;;12.40;11.20;;;4.70;99.90;;;;;;4998394;28;20445;-81
2023/12/31 02:09:43;;;;;;;13.70;11.47;;;4.70;99.90;;;;;;4998372;28;20436;-80
2023/12/31 02:12:14;;;;;;;13.27;12.03;;;4.70;99.90;;;;;;4998754;28;21064;-80
2023/12/31 02:14:42;;;;;;;14.07;12.57;;;4.60;99.90;;;;;;4998993;28;20460;-79
2023/12/31 02:17:13;;;;;;;16.27;13.17;;;4.60;99.90;;;;;;4999491;28;20519;-80
2023/12/31 02:19:51;;;;;;;13.47;12.27;;;4.60;99.90;;;;;;4999290;28;20450;-80
2023/12/31 02:22:25;;;;;;;18.50;13.70;;;4.60;99.90;;;;;;4997113;28;20476;-80
2023/12/31 02:25:21;;;;;;;13.03;11.53;;;4.40;99.90;;;;;;4997060;28;20994;-80
2023/12/31 02:27:56;;;;;;;14.50;12.97;;;4.50;99.90;;;;;;4997408;28;20835;-80
2023/12/31 02:30:30;;;;;;;13.77;12.37;;;4.50;99.90;;;;;;5000358;28;20480;-81
2023/12/31 02:33:03;;;;;;;13.43;12.13;;;4.50;99.90;;;;;;4999106;28;20456;-80
2023/12/31 02:35:34;;;;;;;15.20;13.60;;;4.50;99.90;;;;;;4998742;28;20887;-81
2023/12/31 02:38:02;;;;;;;15.20;13.33;;;4.50;99.90;;;;;;5000883;28;20506;-81
2023/12/31 02:40:32;;;;;;;16.33;13.13;;;4.40;99.90;;;;;;5002616;28;20453;-82
2023/12/31 02:43:12;;;;;;;14.53;13.13;;;4.40;99.90;;;;;;5001061;28;20551;-81
2023/12/31 02:45:48;;;;;;;13.47;12.17;;;4.40;99.90;;;;;;4999666;28;20565;-80
2023/12/31 02:48:26;;;;;;;12.93;10.83;;;4.40;99.90;;;;;;4999575;28;20906;-80
2023/12/31 02:50:59;;;;;;;16.80;13.90;;;4.40;99.90;;;;;;4998409;28;20468;-80
2023/12/31 02:53:33;;;;;;;13.37;11.83;;;4.40;99.90;;;;;;5001460;28;20973;-80
2023/12/31 02:56:10;;;;;;;14.37;12.87;;;4.40;99.90;;;;;;5001866;28;20937;-81
2023/12/31 02:58:43;;;;;;;13.50;12.20;;;4.40;99.90;;;;;;5001317;28;20783;-80
2023/12/31 03:01:15;;;;;;;14.17;12.50;;;4.40;99.90;;;;;;5001558;28;20500;-80
2023/12/31 03:03:43;;;;;;;13.10;11.80;;;4.40;99.90;;;;;;5002202;28;20463;-80
2023/12/31 03:06:16;;;;;;;12.33;11.17;;;4.40;99.90;;;;;;5001500;28;20600;-81
2023/12/31 03:08:58;;;;;;;13.67;11.87;;;4.50;99.90;;;;;;5001596;28;20448;-80
2023/12/31 03:11:33;;;;;;;13.10;11.80;;;4.50;99.90;;;;;;5002227;28;20504;-79
2023/12/31 03:14:13;;;;;;;12.97;11.60;;;4.50;99.90;;;;;;5001049;28;20901;-80
2023/12/31 03:16:52;;;;;;;12.00;10.80;;;4.60;99.90;;;;;;5002919;28;20452;-79
2023/12/31 03:19:24;;;;;;;12.80;11.50;;;4.70;99.90;;;;;;5004323;28;20441;-79
2023/12/31 03:21:58;;;;;;;12.80;10.97;;;4.70;99.90;;;;;;5004946;28;20503;-79
2023/12/31 03:24:29;;;;;;;11.67;10.47;;;4.70;99.90;;;;;;5003405;28;20451;-81
2023/12/31 03:27:00;;;;;;;12.10;10.90;;;4.60;99.90;;;;;;5006584;28;20503;-78
2023/12/31 03:29:36;;;;;;;12.83;11.33;;;4.40;99.90;;;;;;5005082;28;20479;-81
2023/12/31 03:32:11;;;;;;;13.93;11.53;;;4.40;99.90;;;;;;5006787;28;20468;-80
2023/12/31 03:34:44;;;;;;;11.93;10.73;;;4.70;99.90;;;;;;5005008;28;20456;-79
2023/12/31 03:37:12;;;;;;;15.03;10.63;;;4.70;99.90;;;;;;5011454;28;20444;-82
2023/12/31 03:39:47;;;;;;;11.43;10.43;;;4.80;99.90;;;;;;5023403;28;20534;-81
2023/12/31 03:42:15;;;;;;;11.57;10.40;;;4.80;99.90;;;;;;5024606;28;20501;-81
2023/12/31 03:44:47;;;;;;;11.60;10.40;;;4.50;99.90;;;;;;5023036;28;20447;-81
2023/12/31 03:47:18;;;;;;;12.47;11.37;;;4.70;99.90;;;;;;5024398;28;20479;-82
2023/12/31 03:49:50;;;;;;;11.07;9.97;;;4.80;99.90;;;;;;5025094;28;20707;-82
2023/12/31 03:52:21;;;;;;;12.20;11.00;;;4.70;99.90;;;;;;5023999;28;20475;-78
2023/12/31 03:54:57;;;;;;;12.03;9.90;;;4.70;99.90;;;;;;5025864;28;20474;-79
2023/12/31 03:57:26;;;;;;;11.90;10.60;;;4.90;99.90;;;;;;5026565;28;20478;-79
2023/12/31 03:59:56;;;;;;;10.93;9.90;;;4.70;99.90;;;;;;5027878;28;20459;-78
2023/12/31 04:02:28;;;;;;;11.43;10.33;;;4.70;99.90;;;;;;5027404;28;21023;-80
2023/12/31 04:05:00;;;;;;;11.53;10.43;;;4.80;99.90;;;;;;5023570;28;20559;-79
2023/12/31 04:07:32;;;;;;;13.80;10.47;;;4.50;99.90;;;;;;5009029;28;20460;-78
2023/12/31 04:10:05;;;;;;;11.20;10.20;;;4.80;99.90;;;;;;5008397;28;20453;-79
2023/12/31 04:12:36;;;;;;;13.50;10.20;;;4.80;99.90;;;;;;5008339;28;20482;-79
2023/12/31 04:15:19;;;;;;;11.83;10.63;;;4.80;99.90;;;;;;5007196;28;20459;-79
2023/12/31 04:17:54;;;;;;;10.50;9.50;;;4.80;99.90;;;;;;5007538;28;20491;-79
2023/12/31 04:20:23;;;;;;;11.83;9.67;;;4.80;99.90;;;;;;5007930;28;20511;-80
2023/12/31 04:22:54;;;;;;;11.30;10.20;;;4.80;99.90;;;;;;5006414;28;20529;-79
2023/12/31 04:25:28;;;;;;;11.40;10.30;;;4.80;99.90;;;;;;5007582;28;20483;-79
2023/12/31 04:28:03;;;;;;;10.03;9.13;;;4.80;99.90;;;;;;5007856;28;20472;-80
2023/12/31 04:30:40;;;;;;;11.03;9.93;;;4.50;99.90;;;;;;5006616;28;20456;-79
2023/12/31 04:33:12;;;;;;;10.30;9.40;;;4.70;99.90;;;;;;5007893;28;20448;-79
2023/12/31 04:35:40;;;;;;;10.97;9.97;;;4.70;99.90;;;;;;5007232;28;20460;-79
2023/12/31 04:38:14;;;;;;;11.77;10.30;;;4.70;99.90;;;;;;5007177;28;20535;-79
2023/12/31 04:40:57;;;;;;;10.23;9.23;;;4.70;99.90;;;;;;5007649;28;20490;-79
2023/12/31 04:43:37;;;;;;;10.03;9.03;;;4.70;99.90;;;;;;5006727;28;20444;-79
2023/12/31 04:46:10;;;;;;;11.77;10.63;;;4.70;99.90;;;;;;5006206;28;20504;-81
2023/12/31 04:48:46;;;;;;;11.60;10.50;;;4.70;99.90;;;;;;5005772;28;20487;-78
2023/12/31 04:51:41;;;;;;;11.20;10.20;;;4.70;99.90;;;;;;5005917;28;20491;-79
2023/12/31 04:54:23;;;;;;;10.97;9.87;;;4.70;99.90;;;;;;5005465;28;20471;-78
2023/12/31 04:57:07;;;;;;;11.00;9.90;;;4.90;99.90;;;;;;5005844;28;20444;-80
2023/12/31 04:59:36;;;;;;;12.73;10.93;;;4.70;99.90;;;;;;5009036;28;20444;-79
2023/12/31 05:02:16;;;;;;;10.13;9.23;;;4.70;99.90;;;;;;5018029;28;20545;-81
2023/12/31 05:04:51;;;;;;;11.03;9.93;;;4.60;99.90;;;;;;5014553;28;20479;-80
2023/12/31 05:07:29;;;;;;;10.67;9.57;;;4.60;99.90;;;;;;5014057;28;20472;-79
2023/12/31 05:12:52;;;;;;;11.03;9.60;;;4.60;99.90;;;;;;5017819;28;20429;-79
2023/12/31 05:15:23;;;;;;;11.73;9.77;;;4.60;99.90;;;;;;5018628;28;20448;-81
2023/12/31 05:18:09;;;;;;;10.53;9.53;;;4.60;99.90;;;;;;5009546;28;20524;-79
2023/12/31 05:20:45;;;;;;;9.90;8.90;;;4.60;99.90;;;;;;5011477;28;20466;-79
2023/12/31 05:23:18;;;;;;;11.00;9.90;;;4.70;99.90;;;;;;5010947;28;20448;-78
2023/12/31 05:25:51;;;;;;;9.30;8.40;;;4.70;99.90;;;;;;5021049;28;20451;-79
2023/12/31 05:28:21;;;;;;;11.20;10.20;;;4.70;99.90;;;;;;5024446;28;20460;-79
2023/12/31 05:30:57;;;;;;;10.10;9.20;;;4.70;99.90;;;;;;5005087;28;20476;-79
2023/12/31 05:33:35;;;;;;;9.90;9.00;;;4.40;99.90;;;;;;5009909;28;20458;-79
2023/12/31 05:36:06;;;;;;;10.17;9.27;;;4.70;99.90;;;;;;5023970;28;20423;-80
2023/12/31 05:38:41;;;;;;;8.97;8.23;;;4.80;99.90;;;;;;5019875;28;20440;-80
2023/12/31 05:41:15;;;;;;;10.50;9.20;;;4.70;99.90;;;;;;5003960;28;20472;-79
2023/12/31 05:43:44;;;;;;;8.50;7.53;;;4.80;99.90;;;;;;5002293;28;20451;-79
2023/12/31 05:46:12;;;;;;;8.20;7.47;;;4.70;99.90;;;;;;5010050;28;20499;-79
2023/12/31 05:48:50;;;;;;;8.83;7.80;;;4.70;99.90;;;;;;5010785;28;20444;-79
2023/12/31 05:51:20;;;;;;;8.33;7.53;;;4.70;99.90;;;;;;5020535;28;20482;-79
2023/12/31 05:53:52;;;;;;;8.53;7.60;;;4.70;99.90;;;;;;5019830;28;20466;-78
2023/12/31 05:56:21;;;;;;;8.70;7.90;;;4.70;99.90;;;;;;5002002;28;20802;-80
2023/12/31 05:58:53;;;;;;;10.20;9.20;;;4.70;99.90;;;;;;5003718;28;20444;-80
2023/12/31 06:01:25;;;;;;;8.50;7.77;;;4.50;99.90;;;;;;5024295;28;20632;-77
2023/12/31 06:03:56;;;;;;;7.33;6.73;;;4.80;99.90;;;;;;5025943;28;20451;-81
2023/12/31 06:06:25;;;;;;;4.90;4.50;;;4.80;99.90;;;;;;5018279;28;20475;-79
2023/12/31 06:08:58;;;;;;;5.23;4.83;;;5.10;99.90;;;;;;5024891;28;20433;-79
2023/12/31 06:11:27;;;;;;;4.50;4.20;;;5.50;99.90;;;;;;5019779;28;20476;-80
2023/12/31 06:14:02;;;;;;;4.53;4.13;;;5.30;99.90;;;;;;5023340;28;20456;-79
2023/12/31 06:16:36;;;;;;;4.10;3.80;;;5.70;99.90;;;;;;5009266;28;20451;-78
2023/12/31 06:19:09;;;;;;;3.97;3.67;;;5.60;99.90;;;;;;5007738;28;20431;-81
2023/12/31 06:21:42;;;;;;;4.30;4.00;;;5.60;99.90;;;;;;5013502;28;20490;-80
2023/12/31 06:24:23;;;;;;;;;;;;;;;;;;;;;
2023/12/31 06:26:57;;;;;;;4.73;4.43;;;5.60;99.90;;;;;;5028161;28;20494;-79
2023/12/31 06:29:33;;;;;;;4.80;4.40;;;5.60;99.90;;;;;;5018451;28;20466;-79
2023/12/31 06:32:04;;;;;;;5.80;5.40;;;5.60;99.90;;;;;;5015809;28;20534;-79
2023/12/31 06:34:40;;;;;;;4.93;4.53;;;5.70;99.90;;;;;;5007789;28;20450;-78
2023/12/31 06:37:08;;;;;;;4.33;3.97;;;5.70;99.90;;;;;;5007559;28;20503;-79
2023/12/31 06:39:45;;;;;;;4.27;3.97;;;5.70;99.90;;;;;;5008625;28;20472;-80
2023/12/31 06:42:18;;;;;;;5.17;4.43;;;5.70;99.90;;;;;;5006380;28;20472;-80
2023/12/31 06:45:04;;;;;;;4.53;4.23;;;5.80;99.90;;;;;;5006019;28;20445;-79
2023/12/31 06:47:47;;;;;;;4.20;3.90;;;5.70;99.90;;;;;;5007527;28;20836;-78
2023/12/31 06:50:23;;;;;;;3.67;3.40;;;5.90;99.90;;;;;;5006672;28;20546;-79
2023/12/31 06:52:55;;;;;;;4.03;3.73;;;5.90;99.90;;;;;;5007384;28;20505;-79
2023/12/31 06:55:36;;;;;;;4.40;3.87;;;6.10;99.90;;;;;;5008079;28;20511;-79
2023/12/31 06:58:09;;;;;;;3.63;3.43;;;5.60;99.90;;;;;;5009805;28;20453;-79
2023/12/31 07:00:41;;;;;;;3.43;3.17;;;5.90;99.90;;;;;;5011445;28;20464;-79
2023/12/31 07:03:17;;;;;;;3.37;3.17;;;6.00;99.90;;;;;;5011095;28;20458;-79
2023/12/31 07:05:54;;;;;;;3.83;3.63;;;6.00;99.90;;;;;;5009629;28;20452;-80
2023/12/31 07:08:22;;;;;;;3.67;3.40;;;6.10;99.90;;;;;;5009312;28;20479;-79
2023/12/31 07:10:55;;;;;;;3.73;3.43;;;6.30;99.90;;;;;;5012008;28;20538;-80
2023/12/31 07:13:26;;;;;;;3.03;2.83;;;6.10;99.90;;;;;;5009865;28;20465;-79
2023/12/31 07:15:58;;;;;;;3.47;3.27;;;6.30;99.90;;;;;;5009364;28;20447;-79
2023/12/31 07:18:31;;;;;;;3.23;3.03;;;6.10;99.90;;;;;;5008842;28;20480;-80
2023/12/31 07:21:05;;;;;;;3.47;3.23;;;6.20;99.90;;;;;;5007204;28;20476;-79
2023/12/31 07:23:33;;;;;;;3.40;3.20;;;6.20;99.90;;;;;;5007652;28;20457;-79
2023/12/31 07:26:03;;;;;;;3.87;3.57;;;6.30;99.90;;;;;;5007783;28;20457;-80
2023/12/31 07:28:38;;;;;;;3.43;3.13;;;6.40;99.90;;;;;;5007875;28;20434;-78
2023/12/31 07:31:07;;;;;;;4.20;3.30;;;6.40;99.90;;;;;;5009132;28;20464;-79
2023/12/31 07:33:45;;;;;;;3.10;2.90;;;6.10;99.90;;;;;;5009528;28;20453;-79
2023/12/31 07:36:18;;;;;;;3.43;3.10;;;6.40;99.90;;;;;;5005568;28;20538;-78
2023/12/31 07:38:48;;;;;;;3.47;3.20;;;6.40;99.90;;;;;;5004356;28;21024;-81
2023/12/31 07:41:26;;;;;;;3.60;3.30;;;6.50;99.90;;;;;;5008126;28;20508;-79
2023/12/31 07:43:54;;;;;;;3.80;3.40;;;6.50;99.90;;;;;;5006982;28;20517;-80
2023/12/31 07:46:29;;;;;;;3.10;2.80;;;6.30;99.90;;;;;;5007673;28;20452;-80
2023/12/31 07:48:57;;;;;;;3.00;2.80;;;6.50;99.90;;;;;;5005700;28;20460;-80
2023/12/31 07:51:28;;;;;;;3.33;3.13;;;6.60;99.90;;;;;;5005840;28;20448;-80
2023/12/31 07:53:56;;;;;;;3.70;3.10;;;6.60;99.90;;;;;;5003559;28;20456;-81
2023/12/31 07:56:24;;;;;;;3.63;2.77;;;6.70;99.90;;;;;;5004966;28;20487;-81
2023/12/31 07:58:55;;;;;;;3.13;2.93;;;6.70;99.90;;;;;;5004415;28;20507;-79
2023/12/31 08:01:33;;;;;;;3.03;2.73;;;6.80;99.90;;;;;;5006130;28;20474;-81
2023/12/31 08:04:04;;;;;;;3.10;2.90;;;7.00;99.90;;;;;;5005592;28;20452;-79
2023/12/31 08:06:34;;;;;;;3.93;3.73;;;6.90;99.90;;;;;;5004862;28;20457;-80
2023/12/31 08:09:02;;;;;;;3.10;2.90;;;6.90;99.90;;;;;;5004342;28;20471;-79
2023/12/31 08:11:37;;;;;;;3.50;3.30;;;7.00;99.90;;;;;;5003951;28;20617;-81
2023/12/31 08:14:12;;;;;;;3.00;2.70;;;6.80;99.90;;;;;;5004492;28;20452;-82
2023/12/31 08:16:44;;;;;;;3.13;3.03;;;7.10;99.90;;;;;;5004825;28;20456;-79
2023/12/31 08:19:20;;;;;;;3.80;3.03;;;7.20;99.90;;;;;;5005016;28;21142;-80
2023/12/31 08:21:55;;;;;;;2.87;2.70;;;7.20;99.90;;;;;;5005743;28;20468;-80
2023/12/31 08:24:27;;;;;;;3.30;3.00;;;7.30;99.90;;;;;;5005563;28;20796;-83
2023/12/31 08:26:59;;;;;;;3.10;2.90;;;7.30;99.90;;;;;;5010170;28;20479;-81
2023/12/31 08:29:35;;;;;;;3.03;2.83;;;7.50;99.90;;;;;;5025256;28;20457;-79
2023/12/31 08:32:10;;;;;;;3.20;3.00;;;7.30;99.90;;;;;;5005218;28;20482;-80
2023/12/31 08:34:44;;;;;;;2.87;2.73;;;7.40;99.90;;;;;;5006054;28;20466;-79
2023/12/31 08:37:16;;;;;;;2.90;2.63;;;7.60;99.90;;;;;;5006505;28;20462;-81
2023/12/31 08:39:52;;;;;;;3.20;2.97;;;7.70;99.90;;;;;;5006121;28;20472;-79
2023/12/31 08:42:31;;;;;;;3.30;3.00;;;7.70;99.90;;;;;;5005064;28;20834;-80
2023/12/31 08:45:06;;;;;;;2.80;2.60;;;7.70;99.90;;;;;;5004268;28;20463;-80
2023/12/31 08:47:43;;;;;;;4.37;2.63;;;7.80;99.90;;;;;;5004231;28;20477;-80
2023/12/31 08:50:19;;;;;;;3.00;2.30;;;7.80;99.90;;;;;;5005019;28;20462;-79
2023/12/31 08:52:57;;;;;;;2.80;2.60;;;7.90;99.90;;;;;;5004108;28;20472;-79
2023/12/31 08:55:52;;;;;;;3.00;2.80;;;8.00;99.90;;;;;;5004557;28;20475;-81
2023/12/31 08:58:26;;;;;;;3.00;2.80;;;8.10;99.90;;;;;;5003984;28;20444;-79
2023/12/31 09:01:14;;;;;;;3.40;3.20;;;7.80;99.90;;;;;;5003865;28;20467;-80
2023/12/31 09:03:48;;;;;;;6.23;4.27;;;8.10;99.90;;;;;;5002274;28;20462;-80
2023/12/31 09:06:19;;;;;;;4.20;3.80;;;8.00;99.90;;;;;;5013832;28;20469;-79
2023/12/31 09:08:51;;;;;;;4.50;4.10;;;7.70;99.90;;;;;;5002563;28;20476;-82
2023/12/31 09:11:25;;;;;;;5.20;4.80;;;7.90;99.90;;;;;;5003610;28;20497;-79
2023/12/31 09:13:55;;;;;;;4.80;4.40;;;7.90;99.90;;;;;;5002401;28;20527;-79
2023/12/31 09:16:33;;;;;;;10.97;9.70;;;7.80;99.90;;;;;;5001984;28;20486;-82
2023/12/31 09:19:03;;;;;;;5.67;4.20;;;7.80;99.90;;;;;;5004247;28;20451;-82
2023/12/31 09:21:48;;;;;;;7.60;4.47;;;7.80;99.90;;;;;;5004857;28;20543;-82
2023/12/31 09:24:24;;;;;;;5.20;4.40;;;7.80;99.90;;;;;;5005681;28;20917;-80
2023/12/31 09:26:59;;;;;;;4.87;4.47;;;7.90;99.90;;;;;;5006366;28;20459;-80
2023/12/31 09:29:39;;;;;;;5.03;4.60;;;7.80;99.90;;;;;;5004004;28;20448;-80
2023/12/31 09:32:08;;;;;;;4.80;4.40;;;7.90;99.90;;;;;;5000989;28;20486;-80
2023/12/31 09:34:39;;;;;;;6.53;5.00;;;7.80;99.90;;;;;;5004577;28;20447;-83
2023/12/31 09:37:09;;;;;;;5.13;4.70;;;7.70;99.90;;;;;;5004147;28;20559;-82
2023/12/31 09:39:43;;;;;;;5.67;5.23;;;7.50;99.90;;;;;;5004909;28;20452;-81
2023/12/31 09:42:19;;;;;;;5.13;4.73;;;7.80;99.90;;;;;;5003654;28;20471;-82
2023/12/31 09:44:50;;;;;;;5.70;5.20;;;7.80;99.90;;;;;;5002458;28;20455;-80
2023/12/31 09:47:21;;;;;;;6.10;5.50;;;7.90;99.90;;;;;;5001901;28;20514;-82
2023/12/31 09:49:53;;;;;;;5.53;5.13;;;8.00;99.90;;;;;;5001895;28;20453;-82
2023/12/31 09:52:42;;;;;;;5.80;5.30;;;7.90;99.90;;;;;;5001270;28;20480;-80
2023/12/31 09:55:28;;;;;;;6.63;6.00;;;8.00;99.90;;;;;;5003281;28;20491;-81
2023/12/31 09:58:03;;;;;;;6.40;5.80;;;7.90;99.90;;;;;;5001929;28;20537;-80
2023/12/31 10:00:49;;;;;;;6.27;5.67;;;8.00;99.90;;;;;;5001574;28;20454;-81
2023/12/31 10:03:21;;;;;;;5.47;5.07;;;8.10;99.90;;;;;;5006437;28;20475;-80
2023/12/31 10:06:03;;;;;;;5.93;5.43;;;8.20;99.90;;;;;;5021063;28;20452;-79
2023/12/31 10:08:43;;;;;;;5.53;5.00;;;8.40;99.90;;;;;;5037746;28;20494;-82
2023/12/31 10:11:24;;;;;;;6.13;5.60;;;8.50;99.90;;;;;;5034670;28;20459;-81
2023/12/31 10:14:04;;;;;;;5.67;5.23;;;8.50;99.90;;;;;;5032452;28;20626;-79
2023/12/31 10:16:54;;;;;;;6.10;5.60;;;8.30;99.90;;;;;;5035183;28;20489;-81
2023/12/31 10:19:31;;;;;;;6.17;5.67;;;8.80;99.90;;;;;;5037760;28;20447;-83
2023/12/31 10:22:11;;;;;;;6.60;6.10;;;8.40;99.90;;;;;;5031682;28;20537;-79
2023/12/31 10:24:41;;;;;;;5.83;5.33;;;8.60;99.90;;;;;;5033287;28;20447;-81
2023/12/31 10:27:11;;;;;;;6.97;6.23;;;8.60;99.90;;;;;;5032956;28;20451;-80
2023/12/31 10:29:47;;;;;;;6.77;6.27;;;8.60;99.90;;;;;;5034117;28;20466;-81
2023/12/31 10:32:22;;;;;;;5.50;5.00;;;8.50;99.90;;;;;;5026977;28;20520;-83
2023/12/31 10:35:03;;;;;;;6.70;5.97;;;8.50;99.90;;;;;;5027896;28;20458;-82
2023/12/31 10:37:37;;;;;;;6.33;5.83;;;8.50;99.90;;;;;;5024161;28;20531;-81
2023/12/31 10:40:21;;;;;;;5.80;5.23;;;8.50;99.90;;;;;;5026491;28;20455;-79
2023/12/31 10:42:56;;;;;;;6.67;6.07;;;8.40;99.90;;;;;;5021686;28;20470;-82
2023/12/31 10:45:25;;;;;;;6.17;5.57;;;8.40;99.90;;;;;;5023596;28;20529;-82
2023/12/31 10:48:01;;;;;;;6.47;5.83;;;8.70;99.90;;;;;;5023399;28;20502;-82
2023/12/31 10:50:42;;;;;;;5.90;5.30;;;8.60;99.90;;;;;;5027414;28;20461;-82
2023/12/31 10:53:16;;;;;;;5.23;4.83;;;8.80;99.90;;;;;;5027572;28;20455;-81
2023/12/31 10:55:45;;;;;;;6.13;5.47;;;8.70;99.90;;;;;;5024690;28;20450;-80
2023/12/31 10:58:19;;;;;;;5.93;5.43;;;8.80;99.90;;;;;;5024622;28;20435;-80
2023/12/31 11:00:48;;;;;;;5.67;5.20;;;9.00;99.90;;;;;;5025035;28;20637;-81
2023/12/31 11:03:19;;;;;;;4.90;4.50;;;9.00;99.90;;;;;;5024886;28;20471;-82
2023/12/31 11:05:47;;;;;;;5.17;4.67;;;9.00;99.90;;;;;;5025563;28;20470;-83
2023/12/31 11:08:23;;;;;;;4.67;4.13;;;9.10;99.90;;;;;;5029441;28;20470;-80
2023/12/31 11:10:53;;;;;;;10.03;9.03;;;9.10;99.90;;;;;;5030221;28;20470;-81
2023/12/31 11:13:28;;;;;;;7.43;6.00;;;9.20;99.90;;;;;;5028197;28;21063;-83
2023/12/31 11:15:59;;;;;;;5.10;4.80;;;9.40;99.90;;;;;;5028190;28;20489;-82
2023/12/31 11:19:05;;;;;;;5.80;5.30;;;9.30;99.90;;;;;;5030380;28;20431;-79
2023/12/31 11:21:55;;;;;;;5.63;5.20;;;9.30;99.90;;;;;;5000483;28;20515;-80
2023/12/31 11:24:30;;;;;;;5.33;4.83;;;9.10;99.90;;;;;;5030167;28;20451;-81
2023/12/31 11:27:15;;;;;;;5.10;4.70;;;9.40;99.90;;;;;;5029159;28;20814;-82
2023/12/31 11:29:46;;;;;;;5.30;4.90;;;9.40;99.90;;;;;;5029876;28;20471;-81
2023/12/31 11:32:17;;;;;;;5.97;5.47;;;9.40;99.90;;;;;;5029199;28;20454;-82
2023/12/31 11:34:53;;;;;;;5.60;4.80;;;9.20;99.90;;;;;;5030881;28;20507;-82
2023/12/31 11:37:21;;;;;;;6.17;5.47;;;9.50;99.90;;;;;;5032858;28;20443;-82
2023/12/31 11:39:50;;;;;;;5.50;5.07;;;9.50;99.90;;;;;;5031813;28;20439;-81
2023/12/31 11:42:31;;;;;;;4.20;3.90;;;9.20;99.90;;;;;;5031026;28;20471;-80
2023/12/31 11:45:05;;;;;;;4.40;4.00;;;9.90;99.90;;;;;;5029126;28;20451;-80
2023/12/31 11:47:38;;;;;;;3.70;3.40;;;9.80;99.90;;;;;;5026888;28;21016;-83
2023/12/31 11:50:22;;;;;;;2.33;2.23;;;10.10;99.90;;;;;;5027316;28;20459;-82
2023/12/31 11:52:53;;;;;;;2.60;2.00;;;10.10;99.90;;;;;;5027683;28;20408;-81
2023/12/31 11:55:20;;;;;;;1.73;1.63;;;10.20;99.90;;;;;;5025396;28;20471;-81
2023/12/31 11:57:48;;;;;;;1.80;1.70;;;9.60;99.90;;;;;;5025273;28;20506;-82
2023/12/31 12:00:25;;;;;;;1.50;1.50;;;9.40;99.90;;;;;;5027297;28;20466;-83
2023/12/31 12:02:53;;;;;;;1.70;1.27;;;9.30;99.90;;;;;;5024856;28;20813;-81
2023/12/31 12:05:21;;;;;;;1.30;1.30;;;9.20;99.90;;;;;;5015913;28;20449;-80
2023/12/31 12:07:48;;;;;;;1.53;1.43;;;9.10;99.90;;;;;;5004164;28;20491;-82
2023/12/31 12:10:30;;;;;;;1.10;1.10;;;9.10;99.90;;;;;;5007527;28;20451;-81
2023/12/31 12:13:03;;;;;;;1.30;1.20;;;8.90;99.90;;;;;;5014682;28;20482;-82
2023/12/31 12:15:43;;;;;;;1.60;1.50;;;8.90;99.90;;;;;;5007315;28;20444;-83
2023/12/31 12:18:29;;;;;;;1.23;1.23;;;8.90;99.90;;;;;;5013764;28;20439;-80
2023/12/31 12:20:58;;;;;;;1.40;1.33;;;8.90;99.90;;;;;;5018224;28;20466;-82
2023/12/31 12:23:26;;;;;;;1.10;1.10;;;8.80;99.90;;;;;;5015033;28;20444;-79
2023/12/31 12:25:53;;;;;;;1.20;1.20;;;8.50;99.90;;;;;;5015771;28;20533;-81
2023/12/31 12:28:24;;;;;;;1.07;0.93;;;8.80;99.90;;;;;;5022743;28;20533;-80
2023/12/31 12:31:00;;;;;;;1.17;1.00;;;8.70;99.90;;;;;;5019956;28;20467;-81
2023/12/31 12:33:34;;;;;;;0.90;0.90;;;8.30;99.90;;;;;;5003326;28;20872;-83
2023/12/31 12:36:03;;;;;;;0.80;0.80;;;8.60;99.90;;;;;;5014806;28;20459;-80
2023/12/31 12:38:30;;;;;;;1.20;1.10;;;8.60;99.90;;;;;;5002294;28;20448;-83
2023/12/31 12:41:12;;;;;;;1.50;1.40;;;8.60;99.90;;;;;;5010629;28;20465;-83
2023/12/31 12:43:43;;;;;;;1.00;1.00;;;8.60;99.90;;;;;;5011498;28;20441;-80
2023/12/31 12:46:18;;;;;;;1.00;1.00;;;8.60;99.90;;;;;;5014303;28;20442;-82
2023/12/31 12:48:55;;;;;;;1.10;1.10;;;8.60;99.90;;;;;;5014822;28;20485;-80
2023/12/31 12:51:27;;;;;;;1.53;1.20;;;8.60;99.90;;;;;;5020458;28;20951;-83
2023/12/31 12:53:55;;;;;;;1.33;1.23;;;8.60;99.90;;;;;;5017572;28;20459;-83
2023/12/31 12:56:24;;;;;;;1.50;1.40;;;8.60;99.90;;;;;;5016772;28;20440;-81
2023/12/31 12:58:57;;;;;;;1.83;1.73;;;8.60;99.90;;;;;;5008317;28;20456;-83
2023/12/31 13:01:27;;;;;;;1.60;1.50;;;8.60;99.90;;;;;;5019174;28;20983;-81
2023/12/31 13:03:59;;;;;;;3.60;2.77;;;8.30;99.90;;;;;;5011742;28;20448;-82
2023/12/31 13:06:29;;;;;;;2.13;1.40;;;8.60;99.90;;;;;;5011193;28;20451;-79
2023/12/31 13:08:56;;;;;;;1.80;1.70;;;8.60;99.90;;;;;;5020557;28;20479;-81
2023/12/31 13:11:28;;;;;;;1.63;1.50;;;8.80;99.90;;;;;;5014304;28;20535;-81
2023/12/31 13:14:06;;;;;;;1.40;1.30;;;8.60;99.90;;;;;;5015731;28;20481;-82
2023/12/31 13:16:35;;;;;;;1.87;1.70;;;8.30;99.90;;;;;;5012250;28;20534;-82
2023/12/31 13:19:03;;;;;;;2.63;1.70;;;8.70;99.90;;;;;;5017927;28;20447;-84
2023/12/31 13:21:31;;;;;;;1.90;1.80;;;8.30;99.90;;;;;;5014630;28;20471;-82
2023/12/31 13:24:00;;;;;;;2.90;1.80;;;8.60;99.90;;;;;;5011851;28;20454;-82
2023/12/31 13:26:29;;;;;;;1.60;1.50;;;8.60;99.90;;;;;;5012954;28;20510;-84
2023/12/31 13:29:05;;;;;;;2.20;1.70;;;8.80;99.90;;;;;;5019518;28;20930;-82